sensor_id;sensor_type;location;lat;lon;timestamp;temperature;humidity
24636;DHT22;12772;49.794;10.024;2023-02-19T00:03:08;12.50;58.30
24636;DHT22;12772;49.794;10.024;2023-02-19T00:07:10;12.40;58.20
24636;DHT22;12772;49.794;10.024;2023-02-19T00:11:18;12.40;58.50
24636;DHT22;12772;49.794;10.024;2023-02-19T00:15:21;12.40;58.70
24636;DHT22;12772;49.794;10.024;2023-02-19T00:19:23;12.40;58.80
24636;DHT22;12772;49.794;10.024;2023-02-19T00:23:25;12.00;59.20
24636;DHT22;12772;49.794;10.024;2023-02-19T00:27:27;12.20;59.40
24636;DHT22;12772;49.794;10.024;2023-02-19T00:31:31;12.10;60.10
24636;DHT22;12772;49.794;10.024;2023-02-19T00:35:34;11.90;60.70
24636;DHT22;12772;49.794;10.024;2023-02-19T00:39:36;12.00;61.40
24636;DHT22;12772;49.794;10.024;2023-02-19T00:43:38;11.40;61.60
24636;DHT22;12772;49.794;10.024;2023-02-19T00:47:40;11.40;62.20
24636;DHT22;12772;49.794;10.024;2023-02-19T00:51:42;11.30;62.50
24636;DHT22;12772;49.794;10.024;2023-02-19T00:55:44;11.70;63.20
24636;DHT22;12772;49.794;10.024;2023-02-19T00:59:46;11.50;63.20
24636;DHT22;12772;49.794;10.024;2023-02-19T01:03:49;11.50;63.20
24636;DHT22;12772;49.794;10.024;2023-02-19T01:07:51;11.60;63.30
24636;DHT22;12772;49.794;10.024;2023-02-19T01:11:53;11.70;63.50
24636;DHT22;12772;49.794;10.024;2023-02-19T01:16:03;11.20;63.30
24636;DHT22;12772;49.794;10.024;2023-02-19T01:20:05;11.70;64.10
24636;DHT22;12772;49.794;10.024;2023-02-19T01:24:07;11.60;64.30
24636;DHT22;12772;49.794;10.024;2023-02-19T01:28:10;11.40;64.40
24636;DHT22;12772;49.794;10.024;2023-02-19T01:32:12;11.40;64.70
24636;DHT22;12772;49.794;10.024;2023-02-19T01:36:14;11.60;65.10
24636;DHT22;12772;49.794;10.024;2023-02-19T01:40:16;11.50;65.30
24636;DHT22;12772;49.794;10.024;2023-02-19T01:48:34;11.30;65.50
24636;DHT22;12772;49.794;10.024;2023-02-19T01:52:37;11.50;65.60
24636;DHT22;12772;49.794;10.024;2023-02-19T01:56:41;11.50;65.60
24636;DHT22;12772;49.794;10.024;2023-02-19T02:00:43;11.20;65.30
24636;DHT22;12772;49.794;10.024;2023-02-19T02:04:45;11.40;65.50
24636;DHT22;12772;49.794;10.024;2023-02-19T02:08:50;10.90;65.10
24636;DHT22;12772;49.794;10.024;2023-02-19T02:13:11;11.00;65.30
24636;DHT22;12772;49.794;10.024;2023-02-19T02:17:27;11.20;65.50
24636;DHT22;12772;49.794;10.024;2023-02-19T02:21:55;11.60;65.90
24636;DHT22;12772;49.794;10.024;2023-02-19T02:30:57;11.50;65.40
24636;DHT22;12772;49.794;10.024;2023-02-19T02:35:05;11.20;64.90
24636;DHT22;12772;49.794;10.024;2023-02-19T02:39:14;11.60;65.30
24636;DHT22;12772;49.794;10.024;2023-02-19T02:43:16;11.10;64.80
24636;DHT22;12772;49.794;10.024;2023-02-19T02:47:18;11.50;64.90
24636;DHT22;12772;49.794;10.024;2023-02-19T02:51:41;11.60;64.90
24636;DHT22;12772;49.794;10.024;2023-02-19T02:55:47;11.60;64.70
24636;DHT22;12772;49.794;10.024;2023-02-19T02:59:49;11.50;64.10
24636;DHT22;12772;49.794;10.024;2023-02-19T03:03:59;11.30;63.40
24636;DHT22;12772;49.794;10.024;2023-02-19T03:08:08;11.60;63.50
24636;DHT22;12772;49.794;10.024;2023-02-19T03:12:14;11.80;63.30
24636;DHT22;12772;49.794;10.024;2023-02-19T03:16:36;11.70;63.10
24636;DHT22;12772;49.794;10.024;2023-02-19T03:20:57;11.70;62.90
24636;DHT22;12772;49.794;10.024;2023-02-19T03:25:15;11.80;62.70
24636;DHT22;12772;49.794;10.024;2023-02-19T03:29:38;11.70;62.70
24636;DHT22;12772;49.794;10.024;2023-02-19T03:33:42;11.80;62.70
24636;DHT22;12772;49.794;10.024;2023-02-19T03:42:34;11.80;62.40
24636;DHT22;12772;49.794;10.024;2023-02-19T03:46:45;11.80;62.40
24636;DHT22;12772;49.794;10.024;2023-02-19T03:51:07;11.80;62.40
24636;DHT22;12772;49.794;10.024;2023-02-19T03:55:21;11.50;62.10
24636;DHT22;12772;49.794;10.024;2023-02-19T03:59:35;12.00;62.40
24636;DHT22;12772;49.794;10.024;2023-02-19T04:03:47;11.40;61.70
24636;DHT22;12772;49.794;10.024;2023-02-19T04:07:55;11.80;62.10
24636;DHT22;12772;49.794;10.024;2023-02-19T04:11:58;11.50;61.80
24636;DHT22;12772;49.794;10.024;2023-02-19T04:16:06;11.80;62.00
24636;DHT22;12772;49.794;10.024;2023-02-19T04:20:11;11.80;61.90
24636;DHT22;12772;49.794;10.024;2023-02-19T04:24:22;11.40;61.70
24636;DHT22;12772;49.794;10.024;2023-02-19T04:28:27;11.80;61.90
24636;DHT22;12772;49.794;10.024;2023-02-19T04:32:29;11.80;61.90
24636;DHT22;12772;49.794;10.024;2023-02-19T04:36:32;11.40;61.50
24636;DHT22;12772;49.794;10.024;2023-02-19T04:40:34;11.90;61.90
24636;DHT22;12772;49.794;10.024;2023-02-19T04:44:36;11.30;61.50
24636;DHT22;12772;49.794;10.024;2023-02-19T04:48:38;11.80;62.00
24636;DHT22;12772;49.794;10.024;2023-02-19T04:52:40;11.80;61.80
24636;DHT22;12772;49.794;10.024;2023-02-19T04:56:42;11.50;61.60
24636;DHT22;12772;49.794;10.024;2023-02-19T05:00:44;11.80;61.70
24636;DHT22;12772;49.794;10.024;2023-02-19T05:04:46;11.60;61.50
24636;DHT22;12772;49.794;10.024;2023-02-19T05:08:47;11.80;61.70
24636;DHT22;12772;49.794;10.024;2023-02-19T05:12:50;11.50;61.40
24636;DHT22;12772;49.794;10.024;2023-02-19T05:16:52;11.40;61.60
24636;DHT22;12772;49.794;10.024;2023-02-19T05:20:54;11.30;61.80
24636;DHT22;12772;49.794;10.024;2023-02-19T05:24:57;11.40;62.10
24636;DHT22;12772;49.794;10.024;2023-02-19T05:29:00;11.20;62.20
24636;DHT22;12772;49.794;10.024;2023-02-19T05:33:02;11.70;62.60
24636;DHT22;12772;49.794;10.024;2023-02-19T05:37:04;11.90;62.80
24636;DHT22;12772;49.794;10.024;2023-02-19T05:41:14;11.60;62.70
24636;DHT22;12772;49.794;10.024;2023-02-19T05:45:16;11.60;63.10
24636;DHT22;12772;49.794;10.024;2023-02-19T05:49:18;11.50;63.50
24636;DHT22;12772;49.794;10.024;2023-02-19T05:53:20;11.10;63.60
24636;DHT22;12772;49.794;10.024;2023-02-19T05:57:22;11.30;63.80
24636;DHT22;12772;49.794;10.024;2023-02-19T06:01:26;11.50;64.00
24636;DHT22;12772;49.794;10.024;2023-02-19T06:05:28;11.20;63.80
24636;DHT22;12772;49.794;10.024;2023-02-19T06:09:30;11.50;64.00
24636;DHT22;12772;49.794;10.024;2023-02-19T06:13:32;11.30;63.60
24636;DHT22;12772;49.794;10.024;2023-02-19T06:17:35;11.10;63.40
24636;DHT22;12772;49.794;10.024;2023-02-19T06:21:37;11.50;63.60
24636;DHT22;12772;49.794;10.024;2023-02-19T06:25:39;11.40;63.40
24636;DHT22;12772;49.794;10.024;2023-02-19T06:29:41;11.40;63.40
24636;DHT22;12772;49.794;10.024;2023-02-19T06:33:43;11.50;63.40
24636;DHT22;12772;49.794;10.024;2023-02-19T06:37:46;11.50;63.30
24636;DHT22;12772;49.794;10.024;2023-02-19T06:41:49;11.40;62.90
24636;DHT22;12772;49.794;10.024;2023-02-19T06:45:51;11.50;62.80
24636;DHT22;12772;49.794;10.024;2023-02-19T06:49:53;11.20;62.30
24636;DHT22;12772;49.794;10.024;2023-02-19T06:53:55;11.10;62.10
24636;DHT22;12772;49.794;10.024;2023-02-19T06:57:57;11.10;61.90
24636;DHT22;12772;49.794;10.024;2023-02-19T07:01:59;11.20;62.00
24636;DHT22;12772;49.794;10.024;2023-02-19T07:06:01;11.10;61.80
24636;DHT22;12772;49.794;10.024;2023-02-19T07:10:03;11.30;61.90
24636;DHT22;12772;49.794;10.024;2023-02-19T07:14:07;11.80;61.90
24636;DHT22;12772;49.794;10.024;2023-02-19T07:18:12;11.60;61.80
24636;DHT22;12772;49.794;10.024;2023-02-19T07:22:14;11.20;61.30
24636;DHT22;12772;49.794;10.024;2023-02-19T07:26:17;11.60;61.50
24636;DHT22;12772;49.794;10.024;2023-02-19T07:30:20;11.50;61.20
24636;DHT22;12772;49.794;10.024;2023-02-19T07:34:23;11.70;61.20
24636;DHT22;12772;49.794;10.024;2023-02-19T07:38:25;11.40;60.70
24636;DHT22;12772;49.794;10.024;2023-02-19T07:42:29;11.70;61.10
24636;DHT22;12772;49.794;10.024;2023-02-19T07:46:31;11.50;60.70
24636;DHT22;12772;49.794;10.024;2023-02-19T07:50:33;11.70;60.60
24636;DHT22;12772;49.794;10.024;2023-02-19T07:54:35;11.80;60.70
24636;DHT22;12772;49.794;10.024;2023-02-19T07:58:37;11.80;60.40
24636;DHT22;12772;49.794;10.024;2023-02-19T08:02:39;11.90;60.50
24636;DHT22;12772;49.794;10.024;2023-02-19T08:06:58;11.40;60.00
24636;DHT22;12772;49.794;10.024;2023-02-19T08:11:02;11.60;60.00
24636;DHT22;12772;49.794;10.024;2023-02-19T08:15:22;11.60;59.90
24636;DHT22;12772;49.794;10.024;2023-02-19T08:19:24;11.60;59.50
24636;DHT22;12772;49.794;10.024;2023-02-19T08:23:27;11.70;59.80
24636;DHT22;12772;49.794;10.024;2023-02-19T08:27:29;11.70;60.00
24636;DHT22;12772;49.794;10.024;2023-02-19T08:31:31;11.70;60.60
24636;DHT22;12772;49.794;10.024;2023-02-19T08:35:34;12.00;60.30
24636;DHT22;12772;49.794;10.024;2023-02-19T08:39:37;11.70;59.80
24636;DHT22;12772;49.794;10.024;2023-02-19T08:43:40;11.80;59.80
24636;DHT22;12772;49.794;10.024;2023-02-19T08:47:42;11.60;59.30
24636;DHT22;12772;49.794;10.024;2023-02-19T08:51:44;12.20;60.20
24636;DHT22;12772;49.794;10.024;2023-02-19T08:55:46;12.00;60.10
24636;DHT22;12772;49.794;10.024;2023-02-19T08:59:48;12.00;60.60
24636;DHT22;12772;49.794;10.024;2023-02-19T09:03:52;11.60;60.60
24636;DHT22;12772;49.794;10.024;2023-02-19T09:07:54;12.00;61.30
24636;DHT22;12772;49.794;10.024;2023-02-19T09:11:56;11.60;61.10
24636;DHT22;12772;49.794;10.024;2023-02-19T09:15:58;11.70;61.20
24636;DHT22;12772;49.794;10.024;2023-02-19T09:20:00;11.50;61.00
24636;DHT22;12772;49.794;10.024;2023-02-19T09:24:02;12.20;61.40
24636;DHT22;12772;49.794;10.024;2023-02-19T09:28:04;11.90;61.20
24636;DHT22;12772;49.794;10.024;2023-02-19T09:32:06;12.10;61.30
24636;DHT22;12772;49.794;10.024;2023-02-19T09:36:08;11.80;61.10
24636;DHT22;12772;49.794;10.024;2023-02-19T09:40:10;12.10;61.60
24636;DHT22;12772;49.794;10.024;2023-02-19T09:44:17;12.20;61.80
24636;DHT22;12772;49.794;10.024;2023-02-19T09:48:21;11.90;61.70
24636;DHT22;12772;49.794;10.024;2023-02-19T09:56:29;12.30;61.50
24636;DHT22;12772;49.794;10.024;2023-02-19T10:00:33;12.20;61.00
24636;DHT22;12772;49.794;10.024;2023-02-19T10:04:40;12.20;61.00
24636;DHT22;12772;49.794;10.024;2023-02-19T10:08:45;12.30;60.80
24636;DHT22;12772;49.794;10.024;2023-02-19T10:12:50;11.70;60.90
24636;DHT22;12772;49.794;10.024;2023-02-19T10:17:01;11.80;60.70
24636;DHT22;12772;49.794;10.024;2023-02-19T10:21:04;12.00;61.00
24636;DHT22;12772;49.794;10.024;2023-02-19T10:25:07;12.00;60.80
24636;DHT22;12772;49.794;10.024;2023-02-19T10:29:13;12.20;61.40
24636;DHT22;12772;49.794;10.024;2023-02-19T10:33:15;11.80;60.90
24636;DHT22;12772;49.794;10.024;2023-02-19T10:37:18;11.80;60.50
24636;DHT22;12772;49.794;10.024;2023-02-19T10:41:22;11.90;60.30
24636;DHT22;12772;49.794;10.024;2023-02-19T10:45:33;12.20;60.40
24636;DHT22;12772;49.794;10.024;2023-02-19T10:49:39;12.20;60.50
24636;DHT22;12772;49.794;10.024;2023-02-19T10:53:45;11.80;60.00
24636;DHT22;12772;49.794;10.024;2023-02-19T10:57:48;11.90;60.30
24636;DHT22;12772;49.794;10.024;2023-02-19T11:01:56;12.20;60.50
24636;DHT22;12772;49.794;10.024;2023-02-19T11:06:04;12.20;60.70
24636;DHT22;12772;49.794;10.024;2023-02-19T11:10:29;12.30;60.80
24636;DHT22;12772;49.794;10.024;2023-02-19T11:14:32;12.20;61.00
24636;DHT22;12772;49.794;10.024;2023-02-19T11:18:35;12.30;61.00
24636;DHT22;12772;49.794;10.024;2023-02-19T11:22:39;11.80;60.30
24636;DHT22;12772;49.794;10.024;2023-02-19T11:26:43;12.40;60.20
24636;DHT22;12772;49.794;10.024;2023-02-19T11:30:47;12.30;59.50
24636;DHT22;12772;49.794;10.024;2023-02-19T11:34:49;12.30;59.50
24636;DHT22;12772;49.794;10.024;2023-02-19T11:38:51;12.30;59.50
24636;DHT22;12772;49.794;10.024;2023-02-19T11:43:06;12.50;59.80
24636;DHT22;12772;49.794;10.024;2023-02-19T11:56:33;12.30;58.20
24636;DHT22;12772;49.794;10.024;2023-02-19T12:01:20;12.30;58.70
24636;DHT22;12772;49.794;10.024;2023-02-19T12:27:48;12.00;59.20
24636;DHT22;12772;49.794;10.024;2023-02-19T12:50:18;12.70;56.60
24636;DHT22;12772;49.794;10.024;2023-02-19T12:54:26;12.50;56.20
24636;DHT22;12772;49.794;10.024;2023-02-19T12:58:41;12.80;56.80
24636;DHT22;12772;49.794;10.024;2023-02-19T13:02:53;12.70;56.90
24636;DHT22;12772;49.794;10.024;2023-02-19T13:07:02;12.80;57.20
24636;DHT22;12772;49.794;10.024;2023-02-19T13:15:41;12.60;57.10
24636;DHT22;12772;49.794;10.024;2023-02-19T13:19:46;12.30;57.10
24636;DHT22;12772;49.794;10.024;2023-02-19T13:23:49;12.60;57.50
24636;DHT22;12772;49.794;10.024;2023-02-19T13:28:12;12.20;57.20
24636;DHT22;12772;49.794;10.024;2023-02-19T13:36:53;12.50;57.60
24636;DHT22;12772;49.794;10.024;2023-02-19T13:40:57;12.50;58.00
24636;DHT22;12772;49.794;10.024;2023-02-19T13:45:02;12.30;57.80
24636;DHT22;12772;49.794;10.024;2023-02-19T13:57:42;12.60;56.30
24636;DHT22;12772;49.794;10.024;2023-02-19T14:05:58;12.70;54.70
24636;DHT22;12772;49.794;10.024;2023-02-19T14:10:01;13.10;54.40
24636;DHT22;12772;49.794;10.024;2023-02-19T14:14:13;13.10;54.00
24636;DHT22;12772;49.794;10.024;2023-02-19T14:18:41;12.70;53.40
24636;DHT22;12772;49.794;10.024;2023-02-19T14:26:46;13.20;54.00
24636;DHT22;12772;49.794;10.024;2023-02-19T14:31:12;13.20;54.10
24636;DHT22;12772;49.794;10.024;2023-02-19T14:35:21;12.90;53.30
24636;DHT22;12772;49.794;10.024;2023-02-19T14:39:31;13.30;53.80
24636;DHT22;12772;49.794;10.024;2023-02-19T14:43:35;13.40;53.70
24636;DHT22;12772;49.794;10.024;2023-02-19T14:47:38;13.40;53.50
24636;DHT22;12772;49.794;10.024;2023-02-19T14:51:42;13.40;53.60
24636;DHT22;12772;49.794;10.024;2023-02-19T14:55:47;13.30;53.70
24636;DHT22;12772;49.794;10.024;2023-02-19T14:59:58;13.30;53.70
24636;DHT22;12772;49.794;10.024;2023-02-19T15:04:00;13.20;53.60
24636;DHT22;12772;49.794;10.024;2023-02-19T15:08:10;13.10;53.90
24636;DHT22;12772;49.794;10.024;2023-02-19T15:12:20;13.00;54.00
24636;DHT22;12772;49.794;10.024;2023-02-19T15:16:24;13.00;54.10
24636;DHT22;12772;49.794;10.024;2023-02-19T15:20:32;13.00;53.80
24636;DHT22;12772;49.794;10.024;2023-02-19T15:24:35;13.00;53.80
24636;DHT22;12772;49.794;10.024;2023-02-19T15:28:37;12.80;53.30
24636;DHT22;12772;49.794;10.024;2023-02-19T15:32:39;13.00;53.60
24636;DHT22;12772;49.794;10.024;2023-02-19T15:36:41;12.80;53.20
24636;DHT22;12772;49.794;10.024;2023-02-19T15:40:44;13.00;53.50
24636;DHT22;12772;49.794;10.024;2023-02-19T15:45:02;12.60;53.20
24636;DHT22;12772;49.794;10.024;2023-02-19T15:49:15;13.00;53.70
24636;DHT22;12772;49.794;10.024;2023-02-19T15:53:26;12.90;53.60
24636;DHT22;12772;49.794;10.024;2023-02-19T15:57:35;12.90;53.70
24636;DHT22;12772;49.794;10.024;2023-02-19T16:01:39;12.90;53.80
24636;DHT22;12772;49.794;10.024;2023-02-19T16:05:42;12.50;53.50
24636;DHT22;12772;49.794;10.024;2023-02-19T16:09:44;12.50;53.40
24636;DHT22;12772;49.794;10.024;2023-02-19T16:13:46;12.90;53.90
24636;DHT22;12772;49.794;10.024;2023-02-19T16:17:48;12.90;54.00
24636;DHT22;12772;49.794;10.024;2023-02-19T16:21:51;12.90;53.90
24636;DHT22;12772;49.794;10.024;2023-02-19T16:25:59;12.80;53.60
24636;DHT22;12772;49.794;10.024;2023-02-19T16:30:29;12.70;53.60
24636;DHT22;12772;49.794;10.024;2023-02-19T16:34:47;12.70;53.50
24636;DHT22;12772;49.794;10.024;2023-02-19T16:47:22;12.60;53.70
24636;DHT22;12772;49.794;10.024;2023-02-19T16:51:26;12.30;53.60
24636;DHT22;12772;49.794;10.024;2023-02-19T16:55:30;12.50;53.90
24636;DHT22;12772;49.794;10.024;2023-02-19T16:59:34;12.10;53.30
24636;DHT22;12772;49.794;10.024;2023-02-19T17:03:37;12.40;53.80
24636;DHT22;12772;49.794;10.024;2023-02-19T17:07:39;12.20;53.80
24636;DHT22;12772;49.794;10.024;2023-02-19T17:11:42;12.30;53.90
24636;DHT22;12772;49.794;10.024;2023-02-19T17:15:44;12.40;54.30
24636;DHT22;12772;49.794;10.024;2023-02-19T17:19:46;12.40;54.30
24636;DHT22;12772;49.794;10.024;2023-02-19T17:23:48;12.40;54.30
24636;DHT22;12772;49.794;10.024;2023-02-19T17:27:50;12.40;54.10
24636;DHT22;12772;49.794;10.024;2023-02-19T17:31:52;12.30;53.80
24636;DHT22;12772;49.794;10.024;2023-02-19T17:35:54;11.90;53.50
24636;DHT22;12772;49.794;10.024;2023-02-19T17:39:56;11.90;53.70
24636;DHT22;12772;49.794;10.024;2023-02-19T17:43:58;12.10;54.30
24636;DHT22;12772;49.794;10.024;2023-02-19T17:48:00;11.90;54.10
24636;DHT22;12772;49.794;10.024;2023-02-19T17:52:02;11.90;54.20
24636;DHT22;12772;49.794;10.024;2023-02-19T17:56:05;12.00;54.50
24636;DHT22;12772;49.794;10.024;2023-02-19T18:00:09;12.10;54.80
24636;DHT22;12772;49.794;10.024;2023-02-19T18:04:11;12.10;54.90
24636;DHT22;12772;49.794;10.024;2023-02-19T18:08:13;11.80;54.80
24636;DHT22;12772;49.794;10.024;2023-02-19T18:12:15;11.80;55.70
24636;DHT22;12772;49.794;10.024;2023-02-19T18:16:18;12.00;55.40
24636;DHT22;12772;49.794;10.024;2023-02-19T18:20:22;11.80;55.50
24636;DHT22;12772;49.794;10.024;2023-02-19T18:24:25;11.80;55.90
24636;DHT22;12772;49.794;10.024;2023-02-19T18:28:27;11.70;56.30
24636;DHT22;12772;49.794;10.024;2023-02-19T18:32:29;11.40;56.40
24636;DHT22;12772;49.794;10.024;2023-02-19T18:36:31;11.40;56.60
24636;DHT22;12772;49.794;10.024;2023-02-19T18:40:33;11.60;57.00
24636;DHT22;12772;49.794;10.024;2023-02-19T18:44:36;11.70;57.10
24636;DHT22;12772;49.794;10.024;2023-02-19T18:48:38;11.90;57.30
24636;DHT22;12772;49.794;10.024;2023-02-19T18:52:40;11.70;57.10
24636;DHT22;12772;49.794;10.024;2023-02-19T18:56:43;11.50;57.10
24636;DHT22;12772;49.794;10.024;2023-02-19T19:00:46;11.70;57.40
24636;DHT22;12772;49.794;10.024;2023-02-19T19:04:52;11.90;57.80
24636;DHT22;12772;49.794;10.024;2023-02-19T19:08:55;11.70;57.70
24636;DHT22;12772;49.794;10.024;2023-02-19T19:12:58;11.70;57.80
24636;DHT22;12772;49.794;10.024;2023-02-19T19:17:00;11.70;57.80
24636;DHT22;12772;49.794;10.024;2023-02-19T19:21:03;11.40;57.70
24636;DHT22;12772;49.794;10.024;2023-02-19T19:25:06;11.60;58.40
24636;DHT22;12772;49.794;10.024;2023-02-19T19:29:08;11.50;58.60
24636;DHT22;12772;49.794;10.024;2023-02-19T19:33:10;11.60;58.70
24636;DHT22;12772;49.794;10.024;2023-02-19T19:37:12;11.50;58.60
24636;DHT22;12772;49.794;10.024;2023-02-19T19:41:16;11.50;58.60
24636;DHT22;12772;49.794;10.024;2023-02-19T19:45:18;11.40;59.10
24636;DHT22;12772;49.794;10.024;2023-02-19T19:49:21;11.20;59.50
24636;DHT22;12772;49.794;10.024;2023-02-19T19:53:23;11.50;60.10
24636;DHT22;12772;49.794;10.024;2023-02-19T19:57:25;11.00;59.80
24636;DHT22;12772;49.794;10.024;2023-02-19T20:01:27;11.60;60.50
24636;DHT22;12772;49.794;10.024;2023-02-19T20:05:29;11.40;60.50
24636;DHT22;12772;49.794;10.024;2023-02-19T20:09:31;11.50;60.70
24636;DHT22;12772;49.794;10.024;2023-02-19T20:13:33;11.00;60.40
24636;DHT22;12772;49.794;10.024;2023-02-19T20:17:35;11.40;60.80
24636;DHT22;12772;49.794;10.024;2023-02-19T20:21:37;11.20;60.70
24636;DHT22;12772;49.794;10.024;2023-02-19T20:25:39;11.10;60.70
24636;DHT22;12772;49.794;10.024;2023-02-19T20:29:41;11.40;61.10
24636;DHT22;12772;49.794;10.024;2023-02-19T20:33:44;11.30;61.00
24636;DHT22;12772;49.794;10.024;2023-02-19T20:37:47;11.10;61.10
24636;DHT22;12772;49.794;10.024;2023-02-19T20:41:50;11.20;61.20
24636;DHT22;12772;49.794;10.024;2023-02-19T20:45:52;11.30;61.30
24636;DHT22;12772;49.794;10.024;2023-02-19T20:49:54;11.10;61.20
24636;DHT22;12772;49.794;10.024;2023-02-19T20:53:56;11.00;61.10
24636;DHT22;12772;49.794;10.024;2023-02-19T20:57:58;11.40;61.50
24636;DHT22;12772;49.794;10.024;2023-02-19T21:02:02;11.20;61.40
24636;DHT22;12772;49.794;10.024;2023-02-19T21:06:05;11.00;61.20
24636;DHT22;12772;49.794;10.024;2023-02-19T21:10:07;11.40;61.70
24636;DHT22;12772;49.794;10.024;2023-02-19T21:14:09;11.40;61.80
24636;DHT22;12772;49.794;10.024;2023-02-19T21:18:12;11.30;61.70
24636;DHT22;12772;49.794;10.024;2023-02-19T21:22:14;10.90;61.70
24636;DHT22;12772;49.794;10.024;2023-02-19T21:26:16;11.30;62.10
24636;DHT22;12772;49.794;10.024;2023-02-19T21:30:18;11.50;62.30
24636;DHT22;12772;49.794;10.024;2023-02-19T21:34:22;11.30;62.20
24636;DHT22;12772;49.794;10.024;2023-02-19T21:38:24;10.80;62.30
24636;DHT22;12772;49.794;10.024;2023-02-19T21:42:26;11.20;62.40
24636;DHT22;12772;49.794;10.024;2023-02-19T21:46:28;10.90;62.40
24636;DHT22;12772;49.794;10.024;2023-02-19T21:50:32;11.00;62.60
24636;DHT22;12772;49.794;10.024;2023-02-19T21:54:34;10.70;62.60
24636;DHT22;12772;49.794;10.024;2023-02-19T21:58:36;11.10;63.20
24636;DHT22;12772;49.794;10.024;2023-02-19T22:02:38;10.80;62.90
24636;DHT22;12772;49.794;10.024;2023-02-19T22:06:41;11.20;63.30
24636;DHT22;12772;49.794;10.024;2023-02-19T22:10:43;10.90;63.00
24636;DHT22;12772;49.794;10.024;2023-02-19T22:14:45;11.00;63.10
24636;DHT22;12772;49.794;10.024;2023-02-19T22:18:49;11.20;63.40
24636;DHT22;12772;49.794;10.024;2023-02-19T22:22:51;11.20;63.50
24636;DHT22;12772;49.794;10.024;2023-02-19T22:26:57;10.80;63.30
24636;DHT22;12772;49.794;10.024;2023-02-19T22:30:59;11.10;63.50
24636;DHT22;12772;49.794;10.024;2023-02-19T22:35:01;10.70;63.20
24636;DHT22;12772;49.794;10.024;2023-02-19T22:39:04;10.80;63.50
24636;DHT22;12772;49.794;10.024;2023-02-19T22:43:06;11.10;63.80
24636;DHT22;12772;49.794;10.024;2023-02-19T22:47:08;10.70;63.50
24636;DHT22;12772;49.794;10.024;2023-02-19T22:51:16;11.10;63.90
24636;DHT22;12772;49.794;10.024;2023-02-19T22:55:19;11.20;64.00
24636;DHT22;12772;49.794;10.024;2023-02-19T22:59:21;10.90;63.80
24636;DHT22;12772;49.794;10.024;2023-02-19T23:03:23;10.70;63.60
24636;DHT22;12772;49.794;10.024;2023-02-19T23:07:25;10.80;63.60
24636;DHT22;12772;49.794;10.024;2023-02-19T23:11:30;10.60;63.40
24636;DHT22;12772;49.794;10.024;2023-02-19T23:15:32;11.00;63.90
24636;DHT22;12772;49.794;10.024;2023-02-19T23:19:34;10.80;63.70
24636;DHT22;12772;49.794;10.024;2023-02-19T23:23:40;10.60;63.50
24636;DHT22;12772;49.794;10.024;2023-02-19T23:27:42;11.00;63.80
24636;DHT22;12772;49.794;10.024;2023-02-19T23:31:44;11.00;63.90
24636;DHT22;12772;49.794;10.024;2023-02-19T23:35:46;11.00;63.90
24636;DHT22;12772;49.794;10.024;2023-02-19T23:39:48;11.00;64.00
24636;DHT22;12772;49.794;10.024;2023-02-19T23:43:50;11.00;63.90
24636;DHT22;12772;49.794;10.024;2023-02-19T23:47:53;10.70;63.80
24636;DHT22;12772;49.794;10.024;2023-02-19T23:51:55;11.00;64.20
24636;DHT22;12772;49.794;10.024;2023-02-19T23:55:57;11.20;64.50
24636;DHT22;12772;49.794;10.024;2023-02-19T23:59:59;11.00;64.50
